sensor_id;sensor_type;location;lat;lon;timestamp;pressure;altitude;pressure_sealevel;temperature;humidity
63493;BME280;49638;47.526;10.028;2022-11-15T00:00:37;91551.88;;;5.99;76.22
63493;BME280;49638;47.526;10.028;2022-11-15T00:03:38;91537.03;;;5.86;76.59
63493;BME280;49638;47.526;10.028;2022-11-15T00:06:38;91531.72;;;5.75;76.48
63493;BME280;49638;47.526;10.028;2022-11-15T00:09:41;91543.38;;;5.79;77.10
63493;BME280;49638;47.526;10.028;2022-11-15T00:12:41;91538.41;;;5.70;77.10
63493;BME280;49638;47.526;10.028;2022-11-15T00:15:42;91536.38;;;5.73;76.93
63493;BME280;49638;47.526;10.028;2022-11-15T00:18:42;91534.19;;;5.69;76.92
63493;BME280;49638;47.526;10.028;2022-11-15T00:21:42;91530.34;;;5.72;77.13
63493;BME280;49638;47.526;10.028;2022-11-15T00:24:42;91522.53;;;5.65;77.24
63493;BME280;49638;47.526;10.028;2022-11-15T00:27:43;91525.28;;;5.70;77.01
63493;BME280;49638;47.526;10.028;2022-11-15T00:30:43;91522.91;;;5.69;77.20
63493;BME280;49638;47.526;10.028;2022-11-15T00:33:44;91501.41;;;5.60;77.46
63493;BME280;49638;47.526;10.028;2022-11-15T00:36:44;91513.22;;;5.69;77.16
63493;BME280;49638;47.526;10.028;2022-11-15T00:39:44;91506.75;;;5.72;76.82
63493;BME280;49638;47.526;10.028;2022-11-15T00:42:45;91494.72;;;5.64;76.99
63493;BME280;49638;47.526;10.028;2022-11-15T00:45:45;91491.22;;;5.70;76.88
63493;BME280;49638;47.526;10.028;2022-11-15T00:48:46;91479.88;;;5.58;77.51
63493;BME280;49638;47.526;10.028;2022-11-15T00:51:46;91494.94;;;5.63;77.77
63493;BME280;49638;47.526;10.028;2022-11-15T00:54:46;91492.19;;;5.58;78.30
63493;BME280;49638;47.526;10.028;2022-11-15T00:57:46;91496.47;;;5.52;78.53
63493;BME280;49638;47.526;10.028;2022-11-15T01:00:47;91493.72;;;5.47;78.64
63493;BME280;49638;47.526;10.028;2022-11-15T01:03:47;91470.19;;;5.40;78.33
63493;BME280;49638;47.526;10.028;2022-11-15T01:06:47;91494.13;;;5.62;77.90
63493;BME280;49638;47.526;10.028;2022-11-15T01:09:48;91493.28;;;5.68;77.68
63493;BME280;49638;47.526;10.028;2022-11-15T01:12:48;91489.97;;;5.73;77.29
63493;BME280;49638;47.526;10.028;2022-11-15T01:15:49;91488.75;;;5.76;77.01
63493;BME280;49638;47.526;10.028;2022-11-15T01:18:50;91470.09;;;5.65;76.72
63493;BME280;49638;47.526;10.028;2022-11-15T01:21:50;91482.28;;;5.78;76.97
63493;BME280;49638;47.526;10.028;2022-11-15T01:24:51;91482.72;;;5.75;77.12
63493;BME280;49638;47.526;10.028;2022-11-15T01:27:51;91472.28;;;5.68;77.30
63493;BME280;49638;47.526;10.028;2022-11-15T01:30:52;91459.56;;;5.54;77.61
63493;BME280;49638;47.526;10.028;2022-11-15T01:33:52;91456.94;;;5.54;77.85
63493;BME280;49638;47.526;10.028;2022-11-15T01:36:52;91466.41;;;5.55;78.21
63493;BME280;49638;47.526;10.028;2022-11-15T01:39:52;91453.00;;;5.44;78.30
63493;BME280;49638;47.526;10.028;2022-11-15T01:42:53;91454.75;;;5.51;78.09
63493;BME280;49638;47.526;10.028;2022-11-15T01:45:58;91454.09;;;5.55;78.75
63493;BME280;49638;47.526;10.028;2022-11-15T01:49:05;91444.28;;;5.51;78.83
63493;BME280;49638;47.526;10.028;2022-11-15T01:52:09;91457.50;;;5.56;78.92
63493;BME280;49638;47.526;10.028;2022-11-15T01:55:16;91438.50;;;5.42;78.90
63493;BME280;49638;47.526;10.028;2022-11-15T01:58:18;91432.69;;;5.40;78.84
63493;BME280;49638;47.526;10.028;2022-11-15T02:01:19;91440.97;;;5.55;78.31
63493;BME280;49638;47.526;10.028;2022-11-15T02:04:25;91429.25;;;5.58;78.38
63493;BME280;49638;47.526;10.028;2022-11-15T02:07:28;91427.00;;;5.61;78.27
63493;BME280;49638;47.526;10.028;2022-11-15T02:10:28;91415.94;;;5.59;77.96
63493;BME280;49638;47.526;10.028;2022-11-15T02:13:29;91424.38;;;5.61;77.93
63493;BME280;49638;47.526;10.028;2022-11-15T02:16:58;91428.69;;;5.56;77.88
63493;BME280;49638;47.526;10.028;2022-11-15T02:23:40;91414.25;;;5.46;78.41
63493;BME280;49638;47.526;10.028;2022-11-15T02:30:29;91403.13;;;5.51;77.90
63493;BME280;49638;47.526;10.028;2022-11-15T02:40:16;91393.97;;;5.42;78.57
63493;BME280;49638;47.526;10.028;2022-11-15T02:43:24;91383.91;;;5.39;77.93
63493;BME280;49638;47.526;10.028;2022-11-15T02:46:52;91382.44;;;5.43;78.42
63493;BME280;49638;47.526;10.028;2022-11-15T02:50:16;91364.38;;;5.23;78.84
63493;BME280;49638;47.526;10.028;2022-11-15T02:53:17;91384.72;;;5.21;78.98
63493;BME280;49638;47.526;10.028;2022-11-15T02:56:17;91376.06;;;5.02;79.27
63493;BME280;49638;47.526;10.028;2022-11-15T03:06:22;91380.88;;;5.05;80.35
63493;BME280;49638;47.526;10.028;2022-11-15T03:09:34;91370.19;;;5.07;79.60
63493;BME280;49638;47.526;10.028;2022-11-15T03:12:46;91373.66;;;5.19;79.70
63493;BME280;49638;47.526;10.028;2022-11-15T03:22:14;91365.66;;;5.32;78.59
63493;BME280;49638;47.526;10.028;2022-11-15T03:25:19;91367.47;;;5.32;78.84
63493;BME280;49638;47.526;10.028;2022-11-15T03:28:25;91361.78;;;5.35;78.72
63493;BME280;49638;47.526;10.028;2022-11-15T03:31:33;91360.63;;;5.31;79.25
63493;BME280;49638;47.526;10.028;2022-11-15T03:34:51;91351.31;;;5.35;79.08
63493;BME280;49638;47.526;10.028;2022-11-15T03:41:00;91348.03;;;5.39;79.06
63493;BME280;49638;47.526;10.028;2022-11-15T03:44:11;91344.19;;;5.24;79.40
63493;BME280;49638;47.526;10.028;2022-11-15T03:47:24;91351.03;;;5.25;79.53
63493;BME280;49638;47.526;10.028;2022-11-15T03:50:28;91335.16;;;5.19;79.27
63493;BME280;49638;47.526;10.028;2022-11-15T03:53:29;91336.69;;;5.27;78.90
63493;BME280;49638;47.526;10.028;2022-11-15T03:56:30;91330.66;;;5.27;78.94
63493;BME280;49638;47.526;10.028;2022-11-15T03:59:30;91336.97;;;5.19;79.29
63493;BME280;49638;47.526;10.028;2022-11-15T04:02:31;91340.84;;;4.98;79.79
63493;BME280;49638;47.526;10.028;2022-11-15T04:05:31;91327.78;;;4.80;80.13
63493;BME280;49638;47.526;10.028;2022-11-15T04:08:31;91334.59;;;4.81;80.29
63493;BME280;49638;47.526;10.028;2022-11-15T04:11:32;91313.72;;;4.74;80.35
63493;BME280;49638;47.526;10.028;2022-11-15T04:14:32;91332.72;;;4.88;80.19
63493;BME280;49638;47.526;10.028;2022-11-15T04:17:46;91336.03;;;4.95;80.08
63493;BME280;49638;47.526;10.028;2022-11-15T04:20:46;91339.25;;;4.97;80.99
63493;BME280;49638;47.526;10.028;2022-11-15T04:24:06;91327.34;;;4.83;80.09
63493;BME280;49638;47.526;10.028;2022-11-15T04:27:12;91333.13;;;4.85;80.01
63493;BME280;49638;47.526;10.028;2022-11-15T04:30:13;91327.69;;;4.86;80.12
63493;BME280;49638;47.526;10.028;2022-11-15T04:33:14;91327.47;;;4.88;79.87
63493;BME280;49638;47.526;10.028;2022-11-15T04:36:14;91335.97;;;5.02;79.63
63493;BME280;49638;47.526;10.028;2022-11-15T04:39:33;91312.34;;;4.90;79.47
63493;BME280;49638;47.526;10.028;2022-11-15T04:42:33;91333.94;;;5.04;79.59
63493;BME280;49638;47.526;10.028;2022-11-15T04:45:33;91328.56;;;4.98;79.75
63493;BME280;49638;47.526;10.028;2022-11-15T04:48:34;91305.72;;;4.69;80.06
63493;BME280;49638;47.526;10.028;2022-11-15T04:51:34;91328.75;;;4.79;80.63
63493;BME280;49638;47.526;10.028;2022-11-15T04:54:34;91328.19;;;4.77;80.43
63493;BME280;49638;47.526;10.028;2022-11-15T04:57:35;91318.38;;;4.72;80.13
63493;BME280;49638;47.526;10.028;2022-11-15T05:00:35;91305.88;;;4.56;80.71
63493;BME280;49638;47.526;10.028;2022-11-15T05:03:36;91323.31;;;4.62;80.88
63493;BME280;49638;47.526;10.028;2022-11-15T05:06:55;91319.88;;;4.61;80.82
63493;BME280;49638;47.526;10.028;2022-11-15T05:09:55;91305.81;;;4.62;81.13
63493;BME280;49638;47.526;10.028;2022-11-15T05:12:55;91297.78;;;4.57;80.80
63493;BME280;49638;47.526;10.028;2022-11-15T05:15:55;91311.41;;;4.66;80.92
63493;BME280;49638;47.526;10.028;2022-11-15T05:18:56;91305.22;;;4.60;80.91
63493;BME280;49638;47.526;10.028;2022-11-15T05:21:56;91314.22;;;4.64;81.03
63493;BME280;49638;47.526;10.028;2022-11-15T05:24:56;91312.25;;;4.60;81.23
63493;BME280;49638;47.526;10.028;2022-11-15T05:27:57;91310.59;;;4.65;81.31
63493;BME280;49638;47.526;10.028;2022-11-15T05:31:05;91308.63;;;4.61;81.21
63493;BME280;49638;47.526;10.028;2022-11-15T05:34:05;91301.13;;;4.64;80.86
63493;BME280;49638;47.526;10.028;2022-11-15T05:37:06;91282.31;;;4.56;81.08
63493;BME280;49638;47.526;10.028;2022-11-15T05:40:07;91286.81;;;4.67;80.41
63493;BME280;49638;47.526;10.028;2022-11-15T05:43:07;91294.53;;;4.80;80.42
63493;BME280;49638;47.526;10.028;2022-11-15T05:46:09;91281.94;;;4.70;80.73
63493;BME280;49638;47.526;10.028;2022-11-15T05:49:12;91280.34;;;4.69;80.76
63493;BME280;49638;47.526;10.028;2022-11-15T05:52:16;91291.56;;;4.77;80.46
63493;BME280;49638;47.526;10.028;2022-11-15T05:55:17;91294.00;;;4.71;80.86
63493;BME280;49638;47.526;10.028;2022-11-15T05:58:19;91283.41;;;4.66;80.90
63493;BME280;49638;47.526;10.028;2022-11-15T06:01:20;91273.22;;;4.58;81.03
63493;BME280;49638;47.526;10.028;2022-11-15T06:04:20;91277.28;;;4.54;81.50
63493;BME280;49638;47.526;10.028;2022-11-15T06:07:21;91284.69;;;4.57;81.55
63493;BME280;49638;47.526;10.028;2022-11-15T06:10:21;91267.03;;;4.53;81.11
63493;BME280;49638;47.526;10.028;2022-11-15T06:13:21;91264.38;;;4.59;80.95
63493;BME280;49638;47.526;10.028;2022-11-15T06:16:22;91275.56;;;4.66;81.13
63493;BME280;49638;47.526;10.028;2022-11-15T06:19:22;91266.59;;;4.74;81.13
63493;BME280;49638;47.526;10.028;2022-11-15T06:22:22;91262.88;;;4.82;80.84
63493;BME280;49638;47.526;10.028;2022-11-15T06:25:22;91267.53;;;4.61;81.08
63493;BME280;49638;47.526;10.028;2022-11-15T06:28:23;91257.00;;;4.68;81.27
63493;BME280;49638;47.526;10.028;2022-11-15T06:31:23;91269.56;;;4.78;81.48
63493;BME280;49638;47.526;10.028;2022-11-15T06:34:23;91256.28;;;4.61;81.56
63493;BME280;49638;47.526;10.028;2022-11-15T06:37:24;91270.53;;;4.65;81.66
63493;BME280;49638;47.526;10.028;2022-11-15T06:40:24;91267.59;;;4.55;81.81
63493;BME280;49638;47.526;10.028;2022-11-15T06:43:24;91281.94;;;4.70;81.57
63493;BME280;49638;47.526;10.028;2022-11-15T06:46:25;91278.66;;;4.75;81.31
63493;BME280;49638;47.526;10.028;2022-11-15T06:49:25;91280.06;;;4.78;81.27
63493;BME280;49638;47.526;10.028;2022-11-15T06:52:26;91288.50;;;4.80;81.36
63493;BME280;49638;47.526;10.028;2022-11-15T06:55:26;91281.88;;;4.77;81.44
63493;BME280;49638;47.526;10.028;2022-11-15T06:58:27;91265.28;;;4.65;81.44
63493;BME280;49638;47.526;10.028;2022-11-15T07:01:27;91272.94;;;4.66;81.61
63493;BME280;49638;47.526;10.028;2022-11-15T07:04:27;91273.13;;;4.65;81.95
63493;BME280;49638;47.526;10.028;2022-11-15T07:07:28;91268.88;;;4.52;82.15
63493;BME280;49638;47.526;10.028;2022-11-15T07:10:28;91261.44;;;4.49;82.06
63493;BME280;49638;47.526;10.028;2022-11-15T07:13:30;91275.03;;;4.58;82.02
63493;BME280;49638;47.526;10.028;2022-11-15T07:16:33;91276.19;;;4.62;81.81
63493;BME280;49638;47.526;10.028;2022-11-15T07:19:33;91272.34;;;4.64;82.04
63493;BME280;49638;47.526;10.028;2022-11-15T07:22:33;91270.59;;;4.77;81.80
63493;BME280;49638;47.526;10.028;2022-11-15T07:25:33;91274.47;;;4.74;81.88
63493;BME280;49638;47.526;10.028;2022-11-15T07:28:34;91270.88;;;4.68;82.34
63493;BME280;49638;47.526;10.028;2022-11-15T07:31:35;91274.09;;;4.70;82.47
63493;BME280;49638;47.526;10.028;2022-11-15T07:34:35;91247.03;;;4.58;82.56
63493;BME280;49638;47.526;10.028;2022-11-15T07:37:35;91269.44;;;4.72;82.62
63493;BME280;49638;47.526;10.028;2022-11-15T07:40:36;91268.00;;;4.77;82.40
63493;BME280;49638;47.526;10.028;2022-11-15T07:43:36;91258.91;;;4.79;82.42
63493;BME280;49638;47.526;10.028;2022-11-15T07:46:36;91260.25;;;4.82;82.59
63493;BME280;49638;47.526;10.028;2022-11-15T07:49:36;91262.44;;;4.85;82.38
63493;BME280;49638;47.526;10.028;2022-11-15T07:52:37;91257.94;;;4.92;82.50
63493;BME280;49638;47.526;10.028;2022-11-15T07:55:40;91255.50;;;5.09;82.26
63493;BME280;49638;47.526;10.028;2022-11-15T07:58:40;91251.66;;;5.11;82.28
63493;BME280;49638;47.526;10.028;2022-11-15T08:01:41;91243.72;;;5.18;81.82
63493;BME280;49638;47.526;10.028;2022-11-15T08:04:41;91249.72;;;5.37;81.89
63493;BME280;49638;47.526;10.028;2022-11-15T08:07:41;91245.63;;;5.41;81.68
63493;BME280;49638;47.526;10.028;2022-11-15T08:10:42;91254.44;;;5.58;81.35
63493;BME280;49638;47.526;10.028;2022-11-15T08:13:42;91245.69;;;5.64;81.37
63493;BME280;49638;47.526;10.028;2022-11-15T08:16:42;91246.13;;;5.73;81.10
63493;BME280;49638;47.526;10.028;2022-11-15T08:19:43;91229.59;;;5.73;81.42
63493;BME280;49638;47.526;10.028;2022-11-15T08:22:43;91227.78;;;5.73;82.20
63493;BME280;49638;47.526;10.028;2022-11-15T08:25:43;91237.97;;;5.81;81.91
63493;BME280;49638;47.526;10.028;2022-11-15T08:28:43;91218.91;;;5.74;81.68
63493;BME280;49638;47.526;10.028;2022-11-15T08:31:44;91217.66;;;5.88;81.41
63493;BME280;49638;47.526;10.028;2022-11-15T08:34:44;91220.78;;;5.97;81.26
63493;BME280;49638;47.526;10.028;2022-11-15T08:37:44;91227.97;;;6.13;81.12
63493;BME280;49638;47.526;10.028;2022-11-15T08:40:45;91207.78;;;6.14;81.19
63493;BME280;49638;47.526;10.028;2022-11-15T08:43:45;91209.81;;;6.24;81.24
63493;BME280;49638;47.526;10.028;2022-11-15T08:46:46;91197.28;;;6.26;81.14
63493;BME280;49638;47.526;10.028;2022-11-15T08:49:46;91205.38;;;6.36;80.97
63493;BME280;49638;47.526;10.028;2022-11-15T08:52:46;91203.97;;;6.45;80.72
63493;BME280;49638;47.526;10.028;2022-11-15T08:55:48;91203.41;;;6.55;80.81
63493;BME280;49638;47.526;10.028;2022-11-15T08:58:48;91208.63;;;6.67;80.49
63493;BME280;49638;47.526;10.028;2022-11-15T09:01:49;91199.25;;;6.71;80.40
63493;BME280;49638;47.526;10.028;2022-11-15T09:04:49;91177.69;;;6.69;80.47
63493;BME280;49638;47.526;10.028;2022-11-15T09:07:53;91179.16;;;6.76;80.33
63493;BME280;49638;47.526;10.028;2022-11-15T09:10:54;91186.41;;;6.86;80.20
63493;BME280;49638;47.526;10.028;2022-11-15T09:13:54;91179.44;;;6.92;80.08
63493;BME280;49638;47.526;10.028;2022-11-15T09:16:54;91191.03;;;7.07;79.55
63493;BME280;49638;47.526;10.028;2022-11-15T09:19:55;91178.91;;;7.06;79.60
63493;BME280;49638;47.526;10.028;2022-11-15T09:23:01;91188.69;;;7.23;79.42
63493;BME280;49638;47.526;10.028;2022-11-15T09:26:03;91182.28;;;7.30;79.41
63493;BME280;49638;47.526;10.028;2022-11-15T09:29:04;91181.06;;;7.38;79.54
63493;BME280;49638;47.526;10.028;2022-11-15T09:32:05;91174.88;;;7.44;79.68
63493;BME280;49638;47.526;10.028;2022-11-15T09:35:05;91169.47;;;7.51;79.33
63493;BME280;49638;47.526;10.028;2022-11-15T09:38:06;91179.59;;;7.59;79.16
63493;BME280;49638;47.526;10.028;2022-11-15T09:57:16;91168.28;;;7.92;76.66
63493;BME280;49638;47.526;10.028;2022-11-15T10:00:44;91164.75;;;8.03;76.88
63493;BME280;49638;47.526;10.028;2022-11-15T10:03:42;91166.44;;;8.10;76.99
63493;BME280;49638;47.526;10.028;2022-11-15T10:06:48;91161.22;;;8.15;76.05
63493;BME280;49638;47.526;10.028;2022-11-15T10:13:02;91138.00;;;8.12;76.68
63493;BME280;49638;47.526;10.028;2022-11-15T10:16:46;91151.41;;;8.27;74.52
63493;BME280;49638;47.526;10.028;2022-11-15T10:20:16;91148.81;;;8.32;74.40
63493;BME280;49638;47.526;10.028;2022-11-15T10:23:19;91132.50;;;8.30;75.94
63493;BME280;49638;47.526;10.028;2022-11-15T10:26:21;91141.34;;;8.41;75.77
63493;BME280;49638;47.526;10.028;2022-11-15T10:29:22;91135.34;;;8.45;75.54
63493;BME280;49638;47.526;10.028;2022-11-15T10:32:23;91111.03;;;8.38;75.28
63493;BME280;49638;47.526;10.028;2022-11-15T10:38:24;91128.69;;;8.60;74.98
63493;BME280;49638;47.526;10.028;2022-11-15T10:44:31;91137.72;;;8.69;74.20
63493;BME280;49638;47.526;10.028;2022-11-15T10:47:32;91118.19;;;8.65;73.99
63493;BME280;49638;47.526;10.028;2022-11-15T10:50:32;91123.09;;;8.78;73.67
63493;BME280;49638;47.526;10.028;2022-11-15T10:53:45;91115.75;;;8.80;69.78
63493;BME280;49638;47.526;10.028;2022-11-15T10:56:50;91108.38;;;8.82;71.26
63493;BME280;49638;47.526;10.028;2022-11-15T11:00:53;91110.31;;;8.92;72.60
63493;BME280;49638;47.526;10.028;2022-11-15T11:03:42;91084.38;;;8.79;70.11
63493;BME280;49638;47.526;10.028;2022-11-15T11:07:19;91098.81;;;8.98;68.79
63493;BME280;49638;47.526;10.028;2022-11-15T11:10:21;91093.28;;;8.99;72.08
63493;BME280;49638;47.526;10.028;2022-11-15T11:13:24;91099.91;;;9.02;71.86
63493;BME280;49638;47.526;10.028;2022-11-15T11:16:43;91091.19;;;9.02;66.48
63493;BME280;49638;47.526;10.028;2022-11-15T11:20:06;91102.06;;;9.10;65.83
63493;BME280;49638;47.526;10.028;2022-11-15T11:23:23;91100.06;;;9.17;65.86
63493;BME280;49638;47.526;10.028;2022-11-15T11:36:21;91105.25;;;9.39;68.48
63493;BME280;49638;47.526;10.028;2022-11-15T11:47:03;91096.28;;;9.40;69.51
63493;BME280;49638;47.526;10.028;2022-11-15T11:50:05;91105.50;;;9.38;66.82
63493;BME280;49638;47.526;10.028;2022-11-15T11:53:36;91112.31;;;9.34;62.87
63493;BME280;49638;47.526;10.028;2022-11-15T11:56:41;91104.97;;;9.36;68.33
63493;BME280;49638;47.526;10.028;2022-11-15T12:00:04;91109.44;;;9.35;62.66
63493;BME280;49638;47.526;10.028;2022-11-15T12:06:49;91123.22;;;9.42;64.15
63493;BME280;49638;47.526;10.028;2022-11-15T12:09:58;91112.41;;;9.44;65.51
63493;BME280;49638;47.526;10.028;2022-11-15T12:13:07;91117.69;;;9.44;63.11
63493;BME280;49638;47.526;10.028;2022-11-15T12:16:23;91118.78;;;9.48;63.41
63493;BME280;49638;47.526;10.028;2022-11-15T12:19:26;91112.66;;;9.42;67.28
63493;BME280;49638;47.526;10.028;2022-11-15T12:22:39;91115.00;;;9.39;64.35
63493;BME280;49638;47.526;10.028;2022-11-15T12:26:14;91129.28;;;9.43;62.31
63493;BME280;49638;47.526;10.028;2022-11-15T12:29:25;91122.91;;;9.39;64.98
63493;BME280;49638;47.526;10.028;2022-11-15T12:32:35;91133.19;;;9.35;64.78
63493;BME280;49638;47.526;10.028;2022-11-15T12:35:39;91124.78;;;9.38;67.04
63493;BME280;49638;47.526;10.028;2022-11-15T12:38:57;91122.38;;;9.37;64.70
63493;BME280;49638;47.526;10.028;2022-11-15T12:45:01;91099.66;;;9.31;66.90
63493;BME280;49638;47.526;10.028;2022-11-15T12:51:20;91114.50;;;9.42;67.20
63493;BME280;49638;47.526;10.028;2022-11-15T12:57:30;91126.94;;;9.46;66.60
63493;BME280;49638;47.526;10.028;2022-11-15T13:03:32;91111.91;;;9.47;68.32
63493;BME280;49638;47.526;10.028;2022-11-15T13:06:44;91119.38;;;9.55;67.58
63493;BME280;49638;47.526;10.028;2022-11-15T13:15:56;91108.53;;;9.52;68.23
63493;BME280;49638;47.526;10.028;2022-11-15T13:18:59;91119.13;;;9.57;68.77
63493;BME280;49638;47.526;10.028;2022-11-15T13:22:04;91103.19;;;9.46;69.06
63493;BME280;49638;47.526;10.028;2022-11-15T13:28:47;91112.75;;;9.53;68.36
63493;BME280;49638;47.526;10.028;2022-11-15T13:31:49;91114.41;;;9.59;69.14
63493;BME280;49638;47.526;10.028;2022-11-15T13:34:50;91110.16;;;9.58;69.09
63493;BME280;49638;47.526;10.028;2022-11-15T13:37:54;91105.69;;;9.58;69.60
63493;BME280;49638;47.526;10.028;2022-11-15T13:40:56;91104.34;;;9.56;69.79
63493;BME280;49638;47.526;10.028;2022-11-15T13:43:58;91105.91;;;9.57;69.84
63493;BME280;49638;47.526;10.028;2022-11-15T13:50:03;91089.81;;;9.53;70.40
63493;BME280;49638;47.526;10.028;2022-11-15T13:53:06;91073.41;;;9.46;70.99
63493;BME280;49638;47.526;10.028;2022-11-15T13:56:06;91073.41;;;9.46;70.95
63493;BME280;49638;47.526;10.028;2022-11-15T13:59:35;91062.00;;;9.40;70.65
63493;BME280;49638;47.526;10.028;2022-11-15T14:02:35;91060.00;;;9.53;71.30
63493;BME280;49638;47.526;10.028;2022-11-15T14:05:36;91061.06;;;9.52;71.32
63493;BME280;49638;47.526;10.028;2022-11-15T14:08:36;91049.41;;;9.47;71.52
63493;BME280;49638;47.526;10.028;2022-11-15T14:11:49;91056.00;;;9.45;71.59
63493;BME280;49638;47.526;10.028;2022-11-15T14:14:49;91042.75;;;9.40;71.90
63493;BME280;49638;47.526;10.028;2022-11-15T14:17:50;91048.03;;;9.40;72.20
63493;BME280;49638;47.526;10.028;2022-11-15T14:21:05;91040.63;;;9.37;71.93
63493;BME280;49638;47.526;10.028;2022-11-15T14:24:20;91035.84;;;9.34;72.78
63493;BME280;49638;47.526;10.028;2022-11-15T14:27:26;91036.38;;;9.31;72.81
63493;BME280;49638;47.526;10.028;2022-11-15T14:30:27;91018.63;;;9.21;73.08
63493;BME280;49638;47.526;10.028;2022-11-15T14:33:33;91022.78;;;9.17;74.18
63493;BME280;49638;47.526;10.028;2022-11-15T14:36:33;91006.09;;;9.06;74.07
63493;BME280;49638;47.526;10.028;2022-11-15T14:39:34;91014.56;;;9.08;74.51
63493;BME280;49638;47.526;10.028;2022-11-15T14:42:34;91011.88;;;9.03;74.88
63493;BME280;49638;47.526;10.028;2022-11-15T14:45:34;91011.88;;;9.03;74.79
63493;BME280;49638;47.526;10.028;2022-11-15T14:48:35;90990.41;;;8.89;74.94
63493;BME280;49638;47.526;10.028;2022-11-15T14:51:35;90991.19;;;8.90;75.25
63493;BME280;49638;47.526;10.028;2022-11-15T14:54:35;91001.78;;;8.95;75.40
63493;BME280;49638;47.526;10.028;2022-11-15T14:57:36;90998.59;;;8.93;75.53
63493;BME280;49638;47.526;10.028;2022-11-15T15:00:38;90987.19;;;8.82;76.27
63493;BME280;49638;47.526;10.028;2022-11-15T15:03:39;90971.84;;;8.74;76.29
63493;BME280;49638;47.526;10.028;2022-11-15T15:06:39;90985.88;;;8.85;76.35
63493;BME280;49638;47.526;10.028;2022-11-15T15:09:40;90980.31;;;8.81;76.69
63493;BME280;49638;47.526;10.028;2022-11-15T15:12:41;90963.38;;;8.72;77.27
63493;BME280;49638;47.526;10.028;2022-11-15T15:15:41;90948.47;;;8.56;77.94
63493;BME280;49638;47.526;10.028;2022-11-15T15:18:42;90945.84;;;8.56;77.76
63493;BME280;49638;47.526;10.028;2022-11-15T15:21:43;90950.38;;;8.60;77.55
63493;BME280;49638;47.526;10.028;2022-11-15T15:24:44;90944.31;;;8.60;77.69
63493;BME280;49638;47.526;10.028;2022-11-15T15:27:45;90930.50;;;8.47;77.32
63493;BME280;49638;47.526;10.028;2022-11-15T15:30:45;90932.03;;;8.43;77.19
63493;BME280;49638;47.526;10.028;2022-11-15T15:33:45;90930.19;;;8.44;77.27
63493;BME280;49638;47.526;10.028;2022-11-15T15:36:46;90925.38;;;8.36;77.13
63493;BME280;49638;47.526;10.028;2022-11-15T15:39:46;90908.41;;;8.26;77.29
63493;BME280;49638;47.526;10.028;2022-11-15T15:42:47;90916.84;;;8.28;77.60
63493;BME280;49638;47.526;10.028;2022-11-15T15:45:48;90906.59;;;8.27;77.21
63493;BME280;49638;47.526;10.028;2022-11-15T15:48:48;90911.38;;;8.35;76.54
63493;BME280;49638;47.526;10.028;2022-11-15T15:51:48;90897.13;;;8.31;76.38
63493;BME280;49638;47.526;10.028;2022-11-15T15:54:48;90901.41;;;8.37;76.67
63493;BME280;49638;47.526;10.028;2022-11-15T15:57:49;90900.84;;;8.35;77.14
63493;BME280;49638;47.526;10.028;2022-11-15T16:00:50;90895.28;;;8.32;77.46
63493;BME280;49638;47.526;10.028;2022-11-15T16:03:50;90890.88;;;8.37;77.09
63493;BME280;49638;47.526;10.028;2022-11-15T16:06:51;90862.59;;;8.22;77.39
63493;BME280;49638;47.526;10.028;2022-11-15T16:09:53;90874.00;;;8.33;77.76
63493;BME280;49638;47.526;10.028;2022-11-15T16:13:03;90884.53;;;8.33;77.86
63493;BME280;49638;47.526;10.028;2022-11-15T16:16:08;90876.88;;;8.32;78.31
63493;BME280;49638;47.526;10.028;2022-11-15T16:19:10;90880.06;;;8.34;77.65
63493;BME280;49638;47.526;10.028;2022-11-15T16:22:11;90859.19;;;8.27;77.17
63493;BME280;49638;47.526;10.028;2022-11-15T16:25:11;90870.56;;;8.33;77.28
63493;BME280;49638;47.526;10.028;2022-11-15T16:28:22;90868.19;;;8.31;78.45
63493;BME280;49638;47.526;10.028;2022-11-15T16:31:22;90867.88;;;8.27;77.79
63493;BME280;49638;47.526;10.028;2022-11-15T16:34:22;90867.88;;;8.27;77.72
63493;BME280;49638;47.526;10.028;2022-11-15T16:37:24;90862.13;;;8.30;77.55
63493;BME280;49638;47.526;10.028;2022-11-15T16:40:29;90861.06;;;8.32;76.80
63493;BME280;49638;47.526;10.028;2022-11-15T16:43:32;90851.81;;;8.24;77.08
63493;BME280;49638;47.526;10.028;2022-11-15T16:46:32;90860.78;;;8.28;77.32
63493;BME280;49638;47.526;10.028;2022-11-15T16:49:33;90848.28;;;8.13;77.22
63493;BME280;49638;47.526;10.028;2022-11-15T16:52:33;90852.19;;;8.11;78.00
63493;BME280;49638;47.526;10.028;2022-11-15T16:55:33;90835.16;;;7.91;78.39
63493;BME280;49638;47.526;10.028;2022-11-15T16:58:36;90828.78;;;7.82;78.35
63493;BME280;49638;47.526;10.028;2022-11-15T17:01:37;90838.03;;;7.85;78.00
63493;BME280;49638;47.526;10.028;2022-11-15T17:04:45;90827.69;;;7.78;77.88
63493;BME280;49638;47.526;10.028;2022-11-15T17:07:47;90834.16;;;7.92;78.10
63493;BME280;49638;47.526;10.028;2022-11-15T17:10:49;90830.16;;;7.90;77.56
63493;BME280;49638;47.526;10.028;2022-11-15T17:13:50;90833.75;;;7.78;78.21
63493;BME280;49638;47.526;10.028;2022-11-15T17:16:50;90829.16;;;7.69;78.90
63493;BME280;49638;47.526;10.028;2022-11-15T17:19:51;90816.44;;;7.61;78.36
63493;BME280;49638;47.526;10.028;2022-11-15T17:22:52;90814.88;;;7.59;78.63
63493;BME280;49638;47.526;10.028;2022-11-15T17:26:02;90827.25;;;7.64;80.21
63493;BME280;49638;47.526;10.028;2022-11-15T17:29:04;90814.75;;;7.49;79.48
63493;BME280;49638;47.526;10.028;2022-11-15T17:32:07;90826.06;;;7.50;79.62
63493;BME280;49638;47.526;10.028;2022-11-15T17:35:09;90806.56;;;7.46;79.56
63493;BME280;49638;47.526;10.028;2022-11-15T17:38:10;90809.56;;;7.54;78.90
63493;BME280;49638;47.526;10.028;2022-11-15T17:41:14;90820.22;;;7.70;78.40
63493;BME280;49638;47.526;10.028;2022-11-15T17:44:15;90816.06;;;7.74;78.47
63493;BME280;49638;47.526;10.028;2022-11-15T17:47:15;90815.56;;;7.77;78.88
63493;BME280;49638;47.526;10.028;2022-11-15T17:50:16;90802.88;;;7.69;79.04
63493;BME280;49638;47.526;10.028;2022-11-15T17:53:16;90803.66;;;7.69;78.42